Blue Ridge, New York
Current Conditions -  °F | °C
As of 1:35 AM on Tuesday 21 Oct 2014 (Local Time) from K6B0 Reporting Station
Overcast Overcast  
Wind Chill: 11°   Ceiling: 7000
Heat Index: 11°   Visibility: 10mi
Dew Point:   Wind: 3mph
Humidity: 59%   Direction: 160°SSE
Pressure: 29.92"   Gusts: NA
Location:  43.8504°N, 73.7678°W
Report Text: K6B0 210535Z AUTO 16003KT 10SM OVC070 11/03 A2992 RMK AO2 T01050027
Loading
Personal Weather Stations






























Interactive Weather Map
Tropical Storm Tracking
New forecast layout! Learn more

10-Day Weather Forecast

Advertisements
Track Severe Weather on mobile